Time;durP1;ratioP1;P1;durP2;ratioP2;P2;SDS_P1;SDS_P2;PMS_P1;PMS_P2;Temp;Humidity;BMP_temperature;BMP_pressure;BME280_temperature;BME280_humidity;BME280_pressure;Samples;Min_cycle;Max_cycle;Signal;HPM_P1;HPM_P2
2021/03/18 00:01:40;;;;;;;9.30;2.10;;;17.30;99.90;;;;;;5054654;28;20432;-69
2021/03/18 00:04:08;;;;;;;6.50;2.17;;;17.30;99.90;;;;;;5054594;28;20064;-70
2021/03/18 00:06:34;;;;;;;5.53;2.25;;;17.30;99.90;;;;;;5053734;28;20025;-70
2021/03/18 00:09:00;;;;;;;7.38;2.20;;;17.30;99.90;;;;;;5054264;28;20025;-70
2021/03/18 00:11:28;;;;;;;6.65;2.20;;;17.30;99.90;;;;;;5054471;28;20377;-70
2021/03/18 00:13:53;;;;;;;7.90;2.42;;;17.20;99.90;;;;;;5054530;28;20531;-70
2021/03/18 00:16:19;;;;;;;7.65;2.17;;;17.20;99.90;;;;;;5054393;28;20028;-70
2021/03/18 00:18:48;;;;;;;8.27;2.42;;;17.20;99.90;;;;;;5054399;28;20492;-70
2021/03/18 00:21:14;;;;;;;7.60;2.60;;;17.20;99.90;;;;;;5054802;28;20388;-70
2021/03/18 00:23:40;;;;;;;5.10;2.05;;;17.20;99.90;;;;;;5052779;28;20070;-70
2021/03/18 00:26:06;;;;;;;8.40;2.40;;;17.20;99.90;;;;;;5053874;28;20028;-70
2021/03/18 00:28:34;;;;;;;10.90;2.40;;;17.20;99.90;;;;;;5054201;28;20424;-69
2021/03/18 00:31:01;;;;;;;5.60;1.90;;;17.20;99.90;;;;;;5053907;28;20572;-70
2021/03/18 00:33:27;;;;;;;7.32;2.30;;;17.20;99.90;;;;;;5054183;28;20033;-69
2021/03/18 00:35:55;;;;;;;7.70;2.67;;;17.20;99.90;;;;;;5054242;28;20040;-69
2021/03/18 00:38:23;;;;;;;7.03;2.05;;;17.10;99.90;;;;;;5054024;28;20441;-70
2021/03/18 00:40:54;;;;;;;7.85;2.20;;;17.10;99.90;;;;;;5054037;28;20388;-69
2021/03/18 00:43:22;;;;;;;7.43;2.10;;;17.10;99.90;;;;;;5053907;28;20017;-69
2021/03/18 00:45:48;;;;;;;8.25;2.47;;;17.10;99.90;;;;;;5054097;28;20057;-70
2021/03/18 00:48:16;;;;;;;9.20;2.20;;;17.10;99.90;;;;;;5054039;28;20029;-69
2021/03/18 00:50:55;;;;;;;6.53;2.13;;;17.10;99.90;;;;;;5053741;28;20131;-70
2021/03/18 00:53:23;;;;;;;7.97;2.50;;;17.10;99.90;;;;;;5053946;28;20084;-70
2021/03/18 00:55:53;;;;;;;10.40;2.50;;;17.10;99.90;;;;;;5053460;28;20009;-70
2021/03/18 00:58:20;;;;;;;7.43;2.20;;;17.10;99.90;;;;;;5053357;28;20049;-70
2021/03/18 01:00:48;;;;;;;15.80;2.42;;;17.00;99.90;;;;;;5053547;28;20021;-69
2021/03/18 01:03:15;;;;;;;7.13;1.98;;;17.00;99.90;;;;;;5053597;28;20029;-70
2021/03/18 01:05:53;;;;;;;9.00;2.38;;;17.00;99.90;;;;;;5053513;28;20037;-70
2021/03/18 01:08:22;;;;;;;5.82;2.10;;;17.00;99.90;;;;;;5053471;28;20392;-70
2021/03/18 01:10:57;;;;;;;8.27;2.33;;;17.00;99.90;;;;;;5053204;28;20056;-70
2021/03/18 01:13:24;;;;;;;5.45;2.00;;;17.00;99.90;;;;;;5053689;28;20389;-70
2021/03/18 01:15:52;;;;;;;8.88;2.40;;;17.00;99.90;;;;;;5053412;28;20146;-70
2021/03/18 01:18:21;;;;;;;5.57;2.03;;;17.00;99.90;;;;;;5053256;28;20025;-70
2021/03/18 01:20:46;;;;;;;5.57;1.80;;;17.00;99.90;;;;;;5053562;28;20025;-70
2021/03/18 01:23:12;;;;;;;5.78;1.83;;;17.00;99.90;;;;;;5053021;28;20028;-71
2021/03/18 01:25:38;;;;;;;7.55;2.05;;;17.00;99.90;;;;;;5052732;28;20107;-70
2021/03/18 01:28:04;;;;;;;7.88;1.92;;;16.90;99.90;;;;;;5052671;28;20052;-71
2021/03/18 01:30:31;;;;;;;8.40;2.28;;;17.00;99.90;;;;;;5053008;28;20036;-70
2021/03/18 01:32:57;;;;;;;8.70;2.15;;;16.90;99.90;;;;;;5053038;28;20033;-70
2021/03/18 01:35:23;;;;;;;10.25;2.20;;;16.90;99.90;;;;;;5052992;28;20023;-70
2021/03/18 01:37:50;;;;;;;10.32;2.33;;;16.90;99.90;;;;;;5053096;28;20025;-70
2021/03/18 01:40:21;;;;;;;7.25;2.25;;;16.90;99.90;;;;;;5053221;28;20029;-70
2021/03/18 01:42:48;;;;;;;9.07;2.28;;;16.90;99.90;;;;;;5053235;28;20017;-70
2021/03/18 01:45:14;;;;;;;7.95;1.80;;;16.90;99.90;;;;;;5052767;28;20028;-70
2021/03/18 01:47:43;;;;;;;7.32;2.08;;;16.90;99.90;;;;;;5051324;28;20031;-70
2021/03/18 01:50:10;;;;;;;8.50;2.15;;;16.90;99.90;;;;;;5052934;28;20102;-70
2021/03/18 01:52:37;;;;;;;9.35;2.00;;;16.90;99.90;;;;;;5052726;28;20056;-70
2021/03/18 01:55:06;;;;;;;5.55;1.58;;;16.90;99.90;;;;;;5052315;28;20473;-70
2021/03/18 01:57:32;;;;;;;7.38;2.08;;;16.90;99.90;;;;;;5052567;28;20024;-70
2021/03/18 01:59:58;;;;;;;6.75;1.83;;;16.90;99.90;;;;;;5052439;28;20170;-70
2021/03/18 02:02:24;;;;;;;7.20;2.17;;;16.90;99.90;;;;;;5051596;28;20029;-69
2021/03/18 02:04:50;;;;;;;6.22;1.80;;;16.80;99.90;;;;;;5052630;28;20508;-70
2021/03/18 02:07:16;;;;;;;8.25;2.00;;;16.80;99.90;;;;;;5052596;28;20358;-70
2021/03/18 02:09:42;;;;;;;8.68;1.95;;;16.80;99.90;;;;;;5052441;28;20404;-70
2021/03/18 02:12:08;;;;;;;6.13;2.05;;;16.80;99.90;;;;;;5052361;28;20414;-69
2021/03/18 02:14:35;;;;;;;7.88;2.10;;;16.80;99.90;;;;;;5052345;28;20028;-69
2021/03/18 02:17:06;;;;;;;7.50;2.20;;;16.80;99.90;;;;;;5052200;28;20117;-68
2021/03/18 02:19:52;;;;;;;5.07;1.60;;;16.80;99.90;;;;;;5052167;28;20033;-70
2021/03/18 02:22:53;;;;;;;6.25;2.00;;;16.80;99.90;;;;;;5052471;28;20028;-70
2021/03/18 02:25:25;;;;;;;5.70;1.63;;;16.80;99.90;;;;;;5052124;28;20032;-70
2021/03/18 02:28:00;;;;;;;8.07;2.30;;;16.80;99.90;;;;;;5052116;28;20021;-70
2021/03/18 02:30:35;;;;;;;6.72;1.70;;;16.80;99.90;;;;;;5052297;28;20025;-70
2021/03/18 02:33:23;;;;;;;5.78;1.98;;;16.80;99.90;;;;;;5052174;28;20021;-70
2021/03/18 02:36:06;;;;;;;6.57;1.70;;;16.80;99.90;;;;;;5052252;28;20033;-70
2021/03/18 02:38:36;;;;;;;6.53;1.67;;;16.80;99.90;;;;;;5051422;28;20048;-70
2021/03/18 02:41:04;;;;;;;5.10;1.90;;;16.70;99.90;;;;;;5051867;28;20769;-70
2021/03/18 02:43:35;;;;;;;6.95;1.88;;;16.80;99.90;;;;;;5051887;28;20029;-70
2021/03/18 02:46:02;;;;;;;6.75;2.13;;;16.70;99.90;;;;;;5051885;28;20111;-70
2021/03/18 02:48:37;;;;;;;8.55;2.03;;;16.80;99.90;;;;;;5049857;28;20032;-70
2021/03/18 02:51:04;;;;;;;6.85;2.03;;;16.70;99.90;;;;;;5051728;28;20017;-70
2021/03/18 02:53:32;;;;;;;6.55;1.83;;;16.70;99.90;;;;;;5051651;28;20025;-70
2021/03/18 02:56:04;;;;;;;8.73;2.20;;;16.70;99.90;;;;;;5051319;28;20029;-70
2021/03/18 02:58:35;;;;;;;8.10;2.00;;;16.70;99.90;;;;;;5051861;28;20032;-70
2021/03/18 03:01:03;;;;;;;5.40;1.73;;;16.70;99.90;;;;;;5051721;28;20025;-69
2021/03/18 03:03:31;;;;;;;8.43;1.80;;;16.70;99.90;;;;;;5050761;28;20037;-70
2021/03/18 03:05:57;;;;;;;7.15;2.10;;;16.70;99.90;;;;;;5051709;28;20026;-70
2021/03/18 03:08:25;;;;;;;7.80;1.73;;;16.60;99.90;;;;;;5051433;28;20029;-70
2021/03/18 03:10:57;;;;;;;7.57;2.10;;;16.60;99.90;;;;;;5051786;28;20386;-69
2021/03/18 03:13:31;;;;;;;8.02;1.85;;;16.60;99.90;;;;;;5053320;28;20017;-70
2021/03/18 03:15:59;;;;;;;7.43;2.03;;;16.70;99.90;;;;;;5055884;28;20036;-70
2021/03/18 03:18:25;;;;;;;6.80;2.00;;;16.60;99.90;;;;;;5055940;28;20029;-71
2021/03/18 03:20:55;;;;;;;6.13;2.08;;;16.60;99.90;;;;;;5055825;28;20033;-71
2021/03/18 03:23:24;;;;;;;7.05;2.03;;;16.60;99.90;;;;;;5055656;28;20056;-70
2021/03/18 03:25:51;;;;;;;7.03;2.10;;;16.60;99.90;;;;;;5055174;28;20107;-70
2021/03/18 03:28:17;;;;;;;4.88;1.55;;;16.60;99.90;;;;;;5055150;28;20021;-70
2021/03/18 03:30:43;;;;;;;6.47;2.00;;;16.60;99.90;;;;;;5055304;28;20017;-70
2021/03/18 03:33:10;;;;;;;8.13;2.05;;;16.60;99.90;;;;;;5054922;28;20033;-70
2021/03/18 03:35:37;;;;;;;7.10;1.85;;;16.50;99.90;;;;;;5055249;28;20021;-70
2021/03/18 03:38:04;;;;;;;6.65;1.60;;;16.60;99.90;;;;;;5055285;28;20033;-70
2021/03/18 03:40:30;;;;;;;10.80;2.10;;;16.50;99.90;;;;;;5055254;28;20366;-70
2021/03/18 03:42:56;;;;;;;5.28;1.70;;;16.50;99.90;;;;;;5055201;28;20043;-69
2021/03/18 03:45:22;;;;;;;7.05;2.00;;;16.50;99.90;;;;;;5055288;28;20108;-70
2021/03/18 03:47:48;;;;;;;7.55;1.88;;;16.50;99.90;;;;;;5055030;28;20021;-70
2021/03/18 03:50:17;;;;;;;6.53;1.80;;;16.50;99.90;;;;;;5054958;28;20496;-70
2021/03/18 03:53:14;;;;;;;9.98;1.88;;;16.50;99.90;;;;;;5054906;28;20032;-70
2021/03/18 03:55:51;;;;;;;8.25;1.77;;;16.50;99.90;;;;;;5054314;28;20021;-70
2021/03/18 03:58:29;;;;;;;10.00;1.95;;;16.50;99.90;;;;;;5054840;28;20608;-70
2021/03/18 04:01:01;;;;;;;7.80;1.90;;;16.50;99.90;;;;;;5055097;28;20029;-69
2021/03/18 04:03:27;;;;;;;7.38;2.05;;;16.50;99.90;;;;;;5054746;28;20017;-70
2021/03/18 04:05:57;;;;;;;6.63;1.80;;;16.50;99.90;;;;;;5055068;28;20025;-69
2021/03/18 04:08:25;;;;;;;5.18;1.98;;;16.50;99.90;;;;;;5055005;28;20033;-69
2021/03/18 04:10:52;;;;;;;6.07;1.73;;;16.50;99.90;;;;;;5054925;28;20017;-70
2021/03/18 04:13:19;;;;;;;7.55;1.92;;;16.50;99.90;;;;;;5054588;28;20472;-70
2021/03/18 04:15:47;;;;;;;9.98;2.20;;;16.40;99.90;;;;;;5054121;28;20021;-70
2021/03/18 04:18:14;;;;;;;6.05;1.80;;;16.40;99.90;;;;;;5054412;28;20048;-70
2021/03/18 04:20:40;;;;;;;7.75;1.88;;;16.40;99.90;;;;;;5054416;28;20381;-70
2021/03/18 04:23:09;;;;;;;5.75;1.60;;;16.40;99.90;;;;;;5054436;28;20025;-69
2021/03/18 04:25:36;;;;;;;5.45;1.60;;;16.40;99.90;;;;;;5053087;28;20017;-70
2021/03/18 04:28:04;;;;;;;6.93;1.85;;;16.40;99.90;;;;;;5054343;28;20060;-70
2021/03/18 04:30:31;;;;;;;7.45;1.75;;;16.40;99.90;;;;;;5054159;28;20084;-68
2021/03/18 04:32:57;;;;;;;6.90;2.00;;;16.40;99.90;;;;;;5054217;28;20029;-69
2021/03/18 04:35:24;;;;;;;5.95;1.83;;;16.40;99.90;;;;;;5053890;28;20036;-69
2021/03/18 04:37:52;;;;;;;5.93;1.80;;;16.30;99.90;;;;;;5054008;28;20469;-70
2021/03/18 04:40:20;;;;;;;6.45;1.90;;;16.30;99.90;;;;;;5052792;28;20033;-69
2021/03/18 04:42:47;;;;;;;7.38;1.80;;;16.30;99.90;;;;;;5054235;28;20029;-71
2021/03/18 04:45:14;;;;;;;9.73;2.05;;;16.30;99.90;;;;;;5053943;28;20021;-70
2021/03/18 04:47:41;;;;;;;7.75;1.65;;;16.30;99.90;;;;;;5053855;28;20538;-70
2021/03/18 04:50:10;;;;;;;4.55;1.42;;;16.30;99.90;;;;;;5054042;28;20036;-70
2021/03/18 04:52:37;;;;;;;7.28;2.05;;;16.30;99.90;;;;;;5053800;28;20109;-70
2021/03/18 04:55:03;;;;;;;6.03;1.65;;;16.30;99.90;;;;;;5053472;28;20496;-71
2021/03/18 04:57:29;;;;;;;5.93;1.88;;;16.30;99.90;;;;;;5053935;28;20056;-71
2021/03/18 04:59:56;;;;;;;14.18;1.90;;;16.30;99.90;;;;;;5053744;28;20029;-70
2021/03/18 05:02:25;;;;;;;5.50;1.73;;;16.20;99.90;;;;;;5053727;28;20021;-70
2021/03/18 05:04:51;;;;;;;4.07;1.40;;;16.20;99.90;;;;;;5053635;28;20032;-70
2021/03/18 05:07:18;;;;;;;6.45;1.48;;;16.20;99.90;;;;;;5053624;28;20095;-71
2021/03/18 05:09:45;;;;;;;4.88;1.52;;;16.20;99.90;;;;;;5053512;28;20481;-70
2021/03/18 05:12:11;;;;;;;6.47;1.73;;;16.20;99.90;;;;;;5053371;28;20060;-70
2021/03/18 05:14:38;;;;;;;7.57;1.73;;;16.20;99.90;;;;;;5053274;28;20369;-70
2021/03/18 05:17:04;;;;;;;6.18;1.65;;;16.10;99.90;;;;;;5053447;28;20037;-70
2021/03/18 05:19:30;;;;;;;8.98;2.00;;;16.10;99.90;;;;;;5053592;28;20095;-69
2021/03/18 05:21:56;;;;;;;6.57;1.80;;;16.10;99.90;;;;;;5053567;28;20497;-70
2021/03/18 05:24:23;;;;;;;6.28;1.60;;;16.10;99.90;;;;;;5052905;28;20028;-70
2021/03/18 05:26:49;;;;;;;7.75;2.05;;;16.10;99.90;;;;;;5034393;28;20129;-69
2021/03/18 05:29:17;;;;;;;7.93;1.70;;;16.10;99.90;;;;;;5052795;28;20068;-70
2021/03/18 05:31:44;;;;;;;7.13;1.92;;;16.10;99.90;;;;;;5053061;28;20029;-69
2021/03/18 05:34:11;;;;;;;5.93;1.50;;;16.10;99.90;;;;;;5052347;28;20029;-69
2021/03/18 05:36:37;;;;;;;6.20;1.40;;;16.10;99.90;;;;;;5051939;28;20070;-69
2021/03/18 05:39:04;;;;;;;5.90;1.50;;;16.10;99.90;;;;;;5052852;28;20423;-70
2021/03/18 05:41:30;;;;;;;4.68;1.45;;;16.00;99.90;;;;;;5053064;28;20029;-69
2021/03/18 05:43:57;;;;;;;4.55;1.40;;;16.00;99.90;;;;;;5052240;28;20108;-69
2021/03/18 05:46:23;;;;;;;5.82;1.77;;;16.00;99.90;;;;;;5051787;28;20557;-68
2021/03/18 05:48:52;;;;;;;5.00;1.50;;;16.00;99.90;;;;;;5052870;28;20037;-69
2021/03/18 05:51:19;;;;;;;5.85;1.83;;;16.00;99.90;;;;;;5052853;28;20035;-69
2021/03/18 05:53:49;;;;;;;4.90;1.58;;;16.00;99.90;;;;;;5052569;28;20021;-69
2021/03/18 05:56:19;;;;;;;7.43;1.70;;;16.00;99.90;;;;;;5052290;28;20033;-68
2021/03/18 05:58:49;;;;;;;10.07;1.55;;;16.00;99.90;;;;;;5052549;28;20095;-69
2021/03/18 06:01:16;;;;;;;4.18;1.55;;;16.00;99.90;;;;;;5050784;28;20408;-68
2021/03/18 06:03:43;;;;;;;7.60;1.75;;;16.00;99.90;;;;;;5052521;28;20028;-69
2021/03/18 06:06:10;;;;;;;7.32;1.88;;;16.00;99.90;;;;;;5052581;28;20029;-69
2021/03/18 06:08:37;;;;;;;5.57;1.80;;;16.00;99.90;;;;;;5052683;28;20116;-69
2021/03/18 06:11:04;;;;;;;5.97;1.30;;;16.00;99.90;;;;;;5051458;28;20091;-69
2021/03/18 06:13:30;;;;;;;5.47;1.58;;;16.00;99.90;;;;;;5052746;28;20036;-69
2021/03/18 06:15:57;;;;;;;5.25;1.67;;;16.00;99.90;;;;;;5050453;28;20051;-68
2021/03/18 06:18:23;;;;;;;6.28;1.60;;;16.00;99.90;;;;;;5052141;28;20025;-69
2021/03/18 06:20:53;;;;;;;5.53;1.75;;;15.90;99.90;;;;;;5052271;28;20033;-69
2021/03/18 06:23:19;;;;;;;5.03;1.48;;;15.90;99.90;;;;;;5052285;28;20560;-69
2021/03/18 06:25:46;;;;;;;8.35;1.80;;;15.90;99.90;;;;;;5051998;28;20033;-69
2021/03/18 06:28:20;;;;;;;6.28;1.58;;;15.90;99.90;;;;;;5052333;28;20101;-68
2021/03/18 06:31:24;;;;;;;4.68;1.60;;;15.90;99.90;;;;;;5052208;28;20029;-68
2021/03/18 06:33:51;;;;;;;4.95;1.48;;;15.90;99.90;;;;;;5049958;28;20087;-68
2021/03/18 06:36:21;;;;;;;6.63;1.52;;;15.90;99.90;;;;;;5052084;28;20036;-69
2021/03/18 06:39:04;;;;;;;6.20;1.52;;;15.90;99.90;;;;;;5051960;28;20021;-69
2021/03/18 06:41:39;;;;;;;7.43;1.48;;;15.90;99.90;;;;;;5052117;28;20074;-69
2021/03/18 06:44:27;;;;;;;6.95;1.55;;;15.90;99.90;;;;;;5052118;28;20075;-69
2021/03/18 06:46:54;;;;;;;6.55;1.63;;;15.90;99.90;;;;;;5049572;28;20021;-68
2021/03/18 06:49:22;;;;;;;6.93;1.30;;;16.00;99.90;;;;;;5051368;28;20048;-69
2021/03/18 06:52:19;;;;;;;5.43;1.25;;;16.00;99.90;;;;;;5051860;28;20027;-68
2021/03/18 06:54:45;;;;;;;4.25;1.23;;;16.00;99.90;;;;;;5009215;28;20045;-70
2021/03/18 06:57:12;;;;;;;5.43;1.55;;;16.00;99.90;;;;;;5050424;28;20098;-69
2021/03/18 06:59:40;;;;;;;4.43;1.40;;;16.00;99.90;;;;;;5051330;28;20103;-73
2021/03/18 07:02:18;;;;;;;10.68;1.75;;;15.90;99.90;;;;;;5051598;28;20021;-68
2021/03/18 07:04:49;;;;;;;3.83;1.38;;;15.80;99.90;;;;;;5051374;28;20029;-69
2021/03/18 07:07:17;;;;;;;8.90;2.35;;;15.80;99.90;;;;;;5051740;28;20113;-68
2021/03/18 07:09:45;;;;;;;15.63;4.03;;;15.30;99.90;;;;;;5051775;28;20021;-71
2021/03/18 07:12:17;;;;;;;14.55;4.00;;;14.60;99.90;;;;;;5051325;28;20035;-72
2021/03/18 07:14:45;;;;;;;13.45;3.75;;;14.10;99.90;;;;;;5051308;28;20028;-70
2021/03/18 07:17:19;;;;;;;15.00;3.95;;;13.80;99.90;;;;;;5051095;28;20032;-68
2021/03/18 07:19:46;;;;;;;14.88;3.60;;;13.70;99.90;;;;;;5051606;28;20037;-68
2021/03/18 07:22:19;;;;;;;18.70;4.05;;;13.50;99.90;;;;;;5051595;28;20021;-68
2021/03/18 07:24:53;;;;;;;12.60;3.47;;;13.40;99.90;;;;;;5051285;28;20032;-69
2021/03/18 07:27:18;;;;;;;17.48;4.22;;;13.40;99.90;;;;;;5050252;28;20033;-69
2021/03/18 07:29:46;;;;;;;16.70;3.83;;;13.50;99.90;;;;;;5049924;28;20162;-69
2021/03/18 07:32:14;;;;;;;16.60;4.35;;;13.50;99.90;;;;;;5039179;28;20021;-69
2021/03/18 07:34:41;;;;;;;14.98;3.72;;;13.30;99.90;;;;;;5051547;28;20029;-70
2021/03/18 07:37:09;;;;;;;13.65;3.75;;;13.20;99.90;;;;;;5051704;28;20036;-69
2021/03/18 07:39:39;;;;;;;12.02;3.40;;;13.20;99.90;;;;;;5051032;28;20035;-68
2021/03/18 07:42:07;;;;;;;14.68;4.07;;;13.30;99.90;;;;;;5051157;28;20064;-69
2021/03/18 07:44:34;;;;;;;15.00;3.90;;;13.10;99.90;;;;;;5051123;28;20029;-69
2021/03/18 07:47:02;;;;;;;16.23;4.32;;;12.90;99.90;;;;;;5050873;28;20489;-69
2021/03/18 07:49:35;;;;;;;14.55;4.00;;;12.80;99.90;;;;;;5051279;28;20107;-68
2021/03/18 07:52:04;;;;;;;14.27;3.95;;;12.60;99.90;;;;;;5050125;28;20033;-68
2021/03/18 07:54:32;;;;;;;15.30;3.97;;;12.50;99.90;;;;;;5046907;28;20095;-68
2021/03/18 07:56:57;;;;;;;13.48;3.70;;;12.30;99.90;;;;;;5049249;28;20567;-66
2021/03/18 07:59:32;;;;;;;13.43;3.28;;;12.40;99.90;;;;;;5049349;28;20036;-68
2021/03/18 08:02:30;;;;;;;13.55;3.30;;;12.30;99.90;;;;;;5050806;28;20640;-67
2021/03/18 08:04:55;;;;;;;12.32;3.45;;;12.20;99.90;;;;;;5030751;28;20037;-67
2021/03/18 08:07:41;;;;;;;12.73;3.17;;;12.10;99.90;;;;;;5053834;28;20083;-67
2021/03/18 08:10:14;;;;;;;12.35;2.90;;;12.20;99.90;;;;;;5054123;28;20033;-67
2021/03/18 08:12:46;;;;;;;9.75;2.85;;;12.10;99.90;;;;;;5044552;28;20028;-68
2021/03/18 08:15:23;;;;;;;9.23;2.60;;;12.30;99.90;;;;;;5053184;28;20040;-67
2021/03/18 08:17:49;;;;;;;7.10;2.65;;;13.90;99.90;;;;;;5054738;28;20037;-66
2021/03/18 08:20:41;;;;;;;6.38;1.98;;;15.60;99.90;;;;;;5053882;28;20029;-65
2021/03/18 08:23:25;;;;;;;6.68;2.00;;;17.10;99.40;;;;;;5048835;28;20033;-70
2021/03/18 08:25:51;;;;;;;7.43;1.90;;;17.90;98.10;;;;;;5054399;28;20036;-68
2021/03/18 08:28:39;;;;;;;6.05;1.75;;;18.30;97.50;;;;;;5054166;28;20082;-68
2021/03/18 08:31:06;;;;;;;6.82;2.08;;;18.90;97.10;;;;;;5054150;28;20123;-66
2021/03/18 08:33:38;;;;;;;7.55;2.10;;;19.30;96.80;;;;;;5053360;28;20503;-68
2021/03/18 08:36:30;;;;;;;8.30;2.20;;;19.70;96.60;;;;;;5053841;28;20020;-67
2021/03/18 08:39:33;;;;;;;5.22;1.73;;;20.20;96.50;;;;;;5054227;28;20068;-68
2021/03/18 08:41:59;;;;;;;5.63;1.80;;;20.50;96.30;;;;;;5050521;28;20053;-66
2021/03/18 08:44:41;;;;;;;5.35;1.90;;;20.90;96.20;;;;;;5053881;28;20029;-68
2021/03/18 08:47:11;;;;;;;6.10;1.80;;;21.20;96.20;;;;;;5054091;28;20021;-66
2021/03/18 08:49:37;;;;;;;4.78;1.63;;;21.40;96.10;;;;;;5054123;28;20040;-68
2021/03/18 08:52:20;;;;;;;6.75;1.77;;;21.70;96.00;;;;;;5053985;28;20029;-67
2021/03/18 08:54:51;;;;;;;5.53;1.90;;;21.90;96.00;;;;;;5052970;28;20025;-66
2021/03/18 08:57:19;;;;;;;4.68;1.75;;;21.90;96.10;;;;;;5052755;28;20488;-66
2021/03/18 08:59:50;;;;;;;7.55;1.77;;;20.90;98.10;;;;;;5052365;28;20112;-64
2021/03/18 09:02:20;;;;;;;4.28;1.58;;;21.10;97.50;;;;;;5053030;28;20017;-65
2021/03/18 09:04:48;;;;;;;5.57;1.85;;;21.80;97.30;;;;;;5052369;28;20028;-63
2021/03/18 09:07:22;;;;;;;5.97;1.60;;;22.20;96.70;;;;;;5053497;28;20029;-68
2021/03/18 09:10:03;;;;;;;5.53;1.60;;;21.40;98.80;;;;;;5053259;28;20036;-65
2021/03/18 09:12:39;;;;;;;5.28;1.80;;;21.20;98.40;;;;;;5052605;28;20045;-66
2021/03/18 09:15:27;;;;;;;7.05;1.40;;;21.90;97.90;;;;;;5053385;28;20083;-67
2021/03/18 09:18:19;;;;;;;4.50;1.70;;;22.10;98.20;;;;;;5053293;28;20449;-68
2021/03/18 09:20:56;;;;;;;3.08;1.23;;;21.20;99.90;;;;;;5030450;28;20120;-67
2021/03/18 09:23:25;;;;;;;4.78;1.50;;;21.40;99.10;;;;;;5033505;28;20032;-66
2021/03/18 09:25:53;;;;;;;5.22;1.58;;;22.10;98.50;;;;;;5040062;28;20055;-66
2021/03/18 09:28:18;;;;;;;5.78;1.60;;;21.70;99.90;;;;;;5052911;28;20072;-65
2021/03/18 09:30:48;;;;;;;3.97;1.50;;;21.10;99.90;;;;;;5052945;28;20064;-67
2021/03/18 09:33:29;;;;;;;3.10;1.25;;;21.60;99.50;;;;;;5052930;28;20041;-65
2021/03/18 09:35:58;;;;;;;3.47;1.38;;;22.20;98.80;;;;;;5053156;28;20017;-64
2021/03/18 09:38:29;;;;;;;5.72;1.65;;;21.60;99.90;;;;;;5053182;28;20033;-64
2021/03/18 09:40:58;;;;;;;4.95;1.73;;;21.20;99.90;;;;;;5051842;28;20033;-65
2021/03/18 09:43:25;;;;;;;3.20;1.27;;;22.00;99.60;;;;;;5052905;28;20079;-63
2021/03/18 09:45:53;;;;;;;6.00;1.58;;;22.10;99.40;;;;;;5052614;28;20427;-64
2021/03/18 09:48:31;;;;;;;4.30;1.40;;;21.60;99.90;;;;;;5052834;28;20037;-65
2021/03/18 09:51:04;;;;;;;4.78;1.60;;;21.40;99.90;;;;;;5052788;28;20480;-63
2021/03/18 09:53:29;;;;;;;3.87;1.30;;;22.30;99.40;;;;;;5052111;28;20029;-64
2021/03/18 09:56:05;;;;;;;3.65;1.40;;;22.00;99.90;;;;;;5052807;28;20111;-63
2021/03/18 09:58:31;;;;;;;4.13;1.40;;;21.50;99.90;;;;;;5050195;28;20029;-66
2021/03/18 10:00:57;;;;;;;2.42;1.15;;;21.50;99.90;;;;;;5052424;28;20033;-64
2021/03/18 10:03:22;;;;;;;3.13;1.40;;;22.40;99.70;;;;;;5052551;28;20025;-65
2021/03/18 10:05:48;;;;;;;4.72;1.40;;;22.10;99.90;;;;;;5051789;28;20079;-65
2021/03/18 10:08:13;;;;;;;3.70;1.52;;;21.70;99.90;;;;;;5052844;28;20036;-68
2021/03/18 10:10:39;;;;;;;3.92;1.50;;;21.30;99.90;;;;;;5052508;28;20036;-66
2021/03/18 10:13:05;;;;;;;8.23;1.60;;;22.10;99.90;;;;;;5051769;28;20032;-65
2021/03/18 10:15:31;;;;;;;5.13;1.35;;;22.30;99.90;;;;;;5051665;28;20029;-67
2021/03/18 10:17:57;;;;;;;5.03;1.40;;;21.90;99.90;;;;;;5052241;28;20481;-65
2021/03/18 10:20:32;;;;;;;5.18;1.30;;;21.50;99.90;;;;;;5052451;28;20388;-66
2021/03/18 10:23:04;;;;;;;2.80;1.05;;;21.60;99.90;;;;;;5051982;28;20029;-64
2021/03/18 10:25:34;;;;;;;3.83;1.13;;;22.40;99.90;;;;;;5052409;28;20108;-65
2021/03/18 10:28:10;;;;;;;4.53;1.52;;;22.00;99.90;;;;;;5052202;28;20024;-70
2021/03/18 10:30:41;;;;;;;3.72;1.40;;;21.00;93.70;;;;;;5052375;28;20021;-69
2021/03/18 10:33:21;;;;;;;4.13;1.65;;;20.50;95.20;;;;;;5052130;28;20029;-70
2021/03/18 10:36:07;;;;;;;3.90;1.58;;;21.00;94.20;;;;;;5051900;28;20027;-68
2021/03/18 10:38:38;;;;;;;6.50;1.73;;;22.00;93.80;;;;;;5046337;28;20041;-70
2021/03/18 10:41:13;;;;;;;3.85;1.42;;;21.70;96.20;;;;;;5051912;28;20538;-69
2021/03/18 10:43:43;;;;;;;2.88;1.30;;;21.40;96.20;;;;;;5051918;28;20433;-67
2021/03/18 10:46:14;;;;;;;4.45;1.70;;;21.10;96.50;;;;;;5051967;28;20033;-69
2021/03/18 10:48:44;;;;;;;3.35;1.40;;;20.90;97.40;;;;;;5051882;28;20033;-66
2021/03/18 10:51:14;;;;;;;3.35;1.52;;;20.80;97.30;;;;;;5050718;28;20104;-64
2021/03/18 10:53:41;;;;;;;4.82;1.65;;;20.70;98.30;;;;;;5051200;28;20036;-70
2021/03/18 10:56:10;;;;;;;3.67;1.50;;;20.60;98.80;;;;;;5051695;28;20025;-68
2021/03/18 10:58:36;;;;;;;3.47;1.67;;;20.50;99.00;;;;;;5051460;28;20029;-69
2021/03/18 11:01:03;;;;;;;6.15;1.80;;;20.50;99.90;;;;;;5051956;28;20037;-69
2021/03/18 11:03:30;;;;;;;3.85;1.40;;;20.40;99.90;;;;;;5051881;28;20120;-67
2021/03/18 11:05:56;;;;;;;5.18;1.58;;;20.30;99.90;;;;;;5051106;28;20068;-68
2021/03/18 11:08:31;;;;;;;4.78;1.80;;;20.30;99.90;;;;;;5051698;28;20422;-65
2021/03/18 11:10:58;;;;;;;3.72;1.42;;;20.20;99.90;;;;;;5051921;28;20362;-67
2021/03/18 11:13:31;;;;;;;2.97;1.40;;;20.20;99.90;;;;;;5050523;28;20025;-67
2021/03/18 11:16:03;;;;;;;2.88;1.52;;;20.20;99.90;;;;;;5052078;28;20053;-70
2021/03/18 11:18:41;;;;;;;3.22;1.33;;;20.10;99.90;;;;;;5065925;28;20389;-69
2021/03/18 11:21:24;;;;;;;4.60;1.60;;;19.90;99.90;;;;;;5050281;28;20028;-70
2021/03/18 11:24:10;;;;;;;8.15;1.30;;;19.60;98.30;;;;;;5050126;28;20021;-69
2021/03/18 11:26:38;;;;;;;4.18;1.38;;;19.50;99.50;;;;;;5050334;28;20039;-68
2021/03/18 11:29:06;;;;;;;6.35;1.25;;;19.50;99.60;;;;;;5050754;28;20388;-68
2021/03/18 11:31:40;;;;;;;6.78;1.70;;;19.90;98.80;;;;;;5050033;28;20029;-68
2021/03/18 11:34:35;;;;;;;3.28;1.42;;;19.80;98.60;;;;;;5052323;28;20031;-68
2021/03/18 11:37:06;;;;;;;5.15;1.48;;;19.80;98.50;;;;;;5073571;28;20123;-68
2021/03/18 11:39:33;;;;;;;4.10;1.48;;;19.60;98.60;;;;;;5075073;28;20035;-68
2021/03/18 11:41:59;;;;;;;6.75;1.40;;;19.60;98.70;;;;;;5075168;28;20033;-70
2021/03/18 11:44:27;;;;;;;6.20;1.42;;;19.40;98.80;;;;;;5056240;28;20552;-73
2021/03/18 11:47:05;;;;;;;3.15;1.40;;;19.30;98.90;;;;;;5052677;28;20025;-72
2021/03/18 11:49:31;;;;;;;6.93;1.10;;;19.20;99.30;;;;;;5053719;28;20476;-71
2021/03/18 11:51:57;;;;;;;2.10;1.20;;;19.20;98.50;;;;;;5053714;28;20438;-72
2021/03/18 11:54:22;;;;;;;3.67;1.23;;;19.00;98.40;;;;;;5054251;28;20029;-69
2021/03/18 11:56:48;;;;;;;2.90;1.27;;;19.20;98.50;;;;;;5055366;28;20029;-71
2021/03/18 11:59:14;;;;;;;4.18;1.50;;;19.50;98.30;;;;;;5054969;28;20041;-72
2021/03/18 12:01:40;;;;;;;5.35;1.55;;;18.90;97.60;;;;;;5054487;28;20029;-71
2021/03/18 12:04:05;;;;;;;4.63;1.55;;;18.10;97.70;;;;;;5053432;28;20380;-71
2021/03/18 12:06:31;;;;;;;4.15;1.50;;;17.40;98.10;;;;;;5052238;28;20017;-71
2021/03/18 12:08:56;;;;;;;5.72;1.40;;;17.00;98.60;;;;;;5052150;28;20025;-70
2021/03/18 12:11:22;;;;;;;4.82;1.17;;;16.80;98.40;;;;;;5053259;28;20437;-71
2021/03/18 12:13:48;;;;;;;2.60;1.00;;;16.50;98.70;;;;;;5053578;28;20029;-70
2021/03/18 12:16:13;;;;;;;2.90;1.13;;;16.40;98.70;;;;;;5053312;28;20021;-71
2021/03/18 12:18:39;;;;;;;3.08;0.95;;;16.30;99.00;;;;;;5053167;28;20021;-71
2021/03/18 12:21:05;;;;;;;4.28;0.80;;;16.20;99.10;;;;;;5053239;28;20033;-71
2021/03/18 12:23:30;;;;;;;2.85;0.80;;;16.10;99.20;;;;;;5052437;28;20354;-72
2021/03/18 12:25:56;;;;;;;2.63;1.08;;;16.10;99.60;;;;;;5053043;28;20108;-70
2021/03/18 12:28:22;;;;;;;4.43;1.25;;;16.60;99.30;;;;;;5053089;28;20021;-66
2021/03/18 12:30:49;;;;;;;3.17;1.27;;;16.80;98.40;;;;;;5053416;28;20024;-68
2021/03/18 12:33:18;;;;;;;3.13;1.23;;;16.90;98.90;;;;;;5053005;28;20023;-68
2021/03/18 12:35:44;;;;;;;4.00;1.20;;;17.00;98.50;;;;;;5053226;28;20017;-68
2021/03/18 12:38:10;;;;;;;2.95;1.13;;;17.10;98.50;;;;;;5052720;28;20029;-67
2021/03/18 12:40:35;;;;;;;3.63;0.90;;;17.20;98.70;;;;;;5052900;28;20032;-69
2021/03/18 12:43:01;;;;;;;5.05;1.17;;;17.30;98.80;;;;;;5052356;28;20037;-69
2021/03/18 12:45:27;;;;;;;7.40;1.17;;;17.40;99.30;;;;;;5052899;28;20021;-67
2021/03/18 12:47:52;;;;;;;4.15;1.33;;;17.40;99.30;;;;;;5052245;28;20473;-68
2021/03/18 12:50:20;;;;;;;5.88;1.50;;;17.20;98.20;;;;;;5053697;28;20091;-67
2021/03/18 12:52:46;;;;;;;4.07;1.10;;;17.00;98.20;;;;;;5053960;28;20032;-67
2021/03/18 12:55:13;;;;;;;6.90;1.10;;;16.90;98.50;;;;;;5053168;28;20029;-67
2021/03/18 12:57:40;;;;;;;3.55;1.40;;;16.90;98.60;;;;;;5052779;28;20063;-69
2021/03/18 13:00:08;;;;;;;4.07;1.10;;;16.80;98.60;;;;;;5052464;28;20044;-68